Time;durP1;ratioP1;P1;durP2;ratioP2;P2;SDS_P1;SDS_P2;PMS_P1;PMS_P2;Temp;Humidity;BMP_temperature;BMP_pressure;BME280_temperature;BME280_humidity;BME280_pressure;Samples;Min_cycle;Max_cycle;Signal;HPM_P1;HPM_P2
2022/12/05 00:01:14;;;;;;;3.97;2.95;;;19.00;46.40;;;;;;6253443;28;20587;-57
2022/12/05 00:04:15;;;;;;;3.45;2.60;;;18.70;45.80;;;;;;6260110;28;20036;-58
2022/12/05 00:07:17;;;;;;;2.97;2.50;;;18.90;46.00;;;;;;6258418;28;20052;-58
2022/12/05 00:10:18;;;;;;;4.43;2.78;;;18.90;46.00;;;;;;6259425;28;21197;-55
2022/12/05 00:13:20;;;;;;;3.60;2.75;;;19.00;46.20;;;;;;6259816;28;20142;-59
2022/12/05 00:16:24;;;;;;;3.33;2.70;;;18.70;46.00;;;;;;6261346;28;21036;-55
2022/12/05 00:19:25;;;;;;;3.35;2.50;;;18.90;46.00;;;;;;6262108;28;20036;-58
2022/12/05 00:22:27;;;;;;;4.35;3.03;;;18.60;46.00;;;;;;6260228;28;20047;-58
2022/12/05 00:25:28;;;;;;;3.88;2.92;;;18.90;46.20;;;;;;6257026;28;21113;-58
2022/12/05 00:28:30;;;;;;;;;;;19.00;46.10;;;;;;6259743;28;20047;-58
2022/12/05 00:31:32;;;;;;;4.28;2.88;;;19.20;46.50;;;;;;6243217;28;19997;-57
2022/12/05 00:34:33;;;;;;;3.58;2.53;;;18.80;46.10;;;;;;6263409;28;20296;-57
2022/12/05 00:37:35;;;;;;;4.55;3.15;;;18.70;46.00;;;;;;6262621;28;20035;-58
2022/12/05 00:40:36;;;;;;;;;;;18.90;46.10;;;;;;6262107;28;20206;-58
2022/12/05 00:43:38;;;;;;;3.88;2.72;;;19.10;46.60;;;;;;6260130;28;20835;-58
2022/12/05 00:46:41;;;;;;;4.00;3.10;;;18.90;46.10;;;;;;6262925;28;20890;-57
2022/12/05 00:49:42;;;;;;;4.47;3.20;;;18.90;46.20;;;;;;6245829;28;20911;-57
2022/12/05 00:52:44;;;;;;;3.65;2.80;;;18.90;46.20;;;;;;6261015;28;20032;-58
2022/12/05 00:55:45;;;;;;;4.13;3.22;;;18.90;46.30;;;;;;6257177;28;20863;-58
2022/12/05 00:58:48;;;;;;;4.55;3.10;;;18.90;46.20;;;;;;6261576;28;20036;-58
2022/12/05 01:01:51;;;;;;;4.38;3.05;;;18.60;45.80;;;;;;6259742;28;20036;-57
2022/12/05 01:04:53;;;;;;;3.53;2.90;;;18.90;62.70;;;;;;6248695;28;20125;-58
2022/12/05 01:07:54;;;;;;;3.55;2.65;;;19.10;46.30;;;;;;6258048;28;20040;-57
2022/12/05 01:10:57;;;;;;;3.47;2.58;;;18.90;46.20;;;;;;6262783;28;20048;-57
2022/12/05 01:13:58;;;;;;;4.50;3.38;;;19.10;45.80;;;;;;6254925;28;20043;-56
2022/12/05 01:17:00;;;;;;;;;;;18.70;46.20;;;;;;6260203;28;20213;-57
2022/12/05 01:20:02;;;;;;;;;;;18.90;46.60;;;;;;6262313;28;19928;-57
2022/12/05 01:23:03;;;;;;;4.10;2.92;;;18.70;46.40;;;;;;6262874;28;19998;-57
2022/12/05 01:26:07;;;;;;;4.68;2.90;;;18.80;46.20;;;;;;6267966;28;20068;-57
2022/12/05 01:29:09;;;;;;;4.50;2.72;;;18.90;46.30;;;;;;6265889;28;21549;-58
2022/12/05 01:32:11;;;;;;;4.43;3.17;;;19.20;46.50;;;;;;6248279;28;20881;-57
2022/12/05 01:35:13;;;;;;;4.15;2.88;;;18.90;46.50;;;;;;6269161;28;20051;-57
2022/12/05 01:38:14;;;;;;;4.68;2.85;;;18.80;46.40;;;;;;6260196;28;21140;-56
2022/12/05 01:41:17;;;;;;;;;;;18.90;46.40;;;;;;6259302;28;20144;-57
2022/12/05 01:44:45;;;;;;;4.25;2.67;;;19.00;46.70;;;;;;6245235;28;20806;-57
2022/12/05 01:47:47;;;;;;;4.90;3.25;;;19.10;46.30;;;;;;6261354;28;21434;-58
2022/12/05 01:50:49;;;;;;;4.72;3.22;;;18.90;46.20;;;;;;6261476;28;20055;-55
2022/12/05 01:53:51;;;;;;;4.40;3.03;;;18.60;46.30;;;;;;6264631;28;20127;-57
2022/12/05 01:56:57;;;;;;;4.75;2.95;;;18.80;46.40;;;;;;6262566;28;21529;-57
2022/12/05 02:00:02;;;;;;;3.83;2.60;;;18.80;46.30;;;;;;6248072;28;20147;-56
2022/12/05 02:03:18;;;;;;;4.22;2.80;;;18.90;46.30;;;;;;6263879;28;20048;-58
2022/12/05 02:06:20;;;;;;;5.53;3.67;;;18.70;47.00;;;;;;6237934;28;20437;-56
2022/12/05 02:09:22;;;;;;;4.72;3.17;;;19.10;46.60;;;;;;6251608;28;20055;-57
2022/12/05 02:12:24;;;;;;;5.45;3.50;;;18.70;46.50;;;;;;6252676;28;20266;-58
2022/12/05 02:15:37;;;;;;;5.03;3.45;;;18.70;46.40;;;;;;6252356;28;20918;-55
2022/12/05 02:18:51;;;;;;;4.55;2.92;;;19.00;46.50;;;;;;6252535;28;20057;-58
2022/12/05 02:22:14;;;;;;;4.93;3.33;;;18.90;46.60;;;;;;6254876;28;20040;-57
2022/12/05 02:25:39;;;;;;;4.65;3.30;;;18.60;63.30;;;;;;6254203;28;20663;-57
2022/12/05 02:29:00;;;;;;;4.65;2.88;;;18.90;46.70;;;;;;6239087;28;20075;-56
2022/12/05 02:32:05;;;;;;;;;;;19.20;46.70;;;;;;6241536;28;20039;-57
2022/12/05 02:35:17;;;;;;;4.72;3.15;;;18.40;46.70;;;;;;6254667;28;19924;-58
2022/12/05 02:38:26;;;;;;;6.97;3.90;;;19.00;46.70;;;;;;6253288;28;20834;-57
2022/12/05 02:41:36;;;;;;;5.13;3.10;;;18.90;46.70;;;;;;6239786;28;20439;-57
2022/12/05 02:44:43;;;;;;;5.55;3.72;;;18.60;46.60;;;;;;6252870;28;20046;-57
2022/12/05 02:47:47;;;;;;;4.88;3.17;;;19.10;46.80;;;;;;6236405;28;20414;-58
2022/12/05 02:50:51;;;;;;;4.03;3.03;;;18.60;46.50;;;;;;6232886;28;20664;-55
2022/12/05 02:53:57;;;;;;;5.07;3.13;;;19.00;46.70;;;;;;6254886;28;20054;-58
2022/12/05 02:57:00;;;;;;;5.25;3.10;;;18.50;46.50;;;;;;6252532;28;20713;-57
2022/12/05 03:00:01;;;;;;;4.47;3.08;;;18.70;46.50;;;;;;6236633;28;20333;-57
2022/12/05 03:03:11;;;;;;;;;;;19.00;46.70;;;;;;6255373;28;20257;-57
2022/12/05 03:06:16;;;;;;;4.93;3.30;;;18.50;46.80;;;;;;6250775;28;19928;-57
2022/12/05 03:09:22;;;;;;;4.00;3.25;;;19.00;46.60;;;;;;6258310;28;20162;-58
2022/12/05 03:12:27;;;;;;;4.65;3.17;;;18.60;46.50;;;;;;6248581;28;20053;-57
2022/12/05 03:15:34;;;;;;;4.93;3.10;;;18.30;46.30;;;;;;6249227;28;20043;-58
2022/12/05 03:18:42;;;;;;;4.72;3.22;;;18.80;46.60;;;;;;6255523;28;20056;-57
2022/12/05 03:21:51;;;;;;;4.25;2.80;;;18.50;46.60;;;;;;6236199;28;20079;-57
2022/12/05 03:24:53;;;;;;;5.82;3.50;;;19.10;46.90;;;;;;6239485;28;20266;-57
2022/12/05 03:28:04;;;;;;;4.82;3.08;;;18.90;46.80;;;;;;6253932;28;20409;-57
2022/12/05 03:31:10;;;;;;;5.67;3.40;;;19.10;47.10;;;;;;6257300;28;20435;-56
2022/12/05 03:34:17;;;;;;;4.57;3.10;;;18.90;46.70;;;;;;6255272;28;20036;-57
2022/12/05 03:37:25;;;;;;;5.75;3.47;;;19.00;46.80;;;;;;6251011;28;20353;-57
2022/12/05 03:40:31;;;;;;;4.70;3.45;;;18.90;46.70;;;;;;6256687;28;20051;-57
2022/12/05 03:43:38;;;;;;;5.22;3.30;;;19.00;46.90;;;;;;6253822;28;20430;-57
2022/12/05 03:46:43;;;;;;;5.25;3.72;;;18.80;46.70;;;;;;6252611;28;20532;-58
2022/12/05 03:49:50;;;;;;;6.57;3.80;;;19.00;47.00;;;;;;6252905;28;20337;-58
2022/12/05 03:52:57;;;;;;;4.70;3.38;;;18.80;46.70;;;;;;6253563;28;20150;-57
2022/12/05 03:56:22;;;;;;;5.82;3.30;;;18.80;46.80;;;;;;6224022;28;20044;-57
2022/12/05 03:59:31;;;;;;;5.80;3.03;;;18.90;46.80;;;;;;6241297;28;20159;-56
2022/12/05 04:02:44;;;;;;;5.13;3.05;;;19.10;46.80;;;;;;6255485;28;20040;-57
2022/12/05 04:05:50;;;;;;;4.60;3.50;;;18.70;46.50;;;;;;6239083;28;20438;-57
2022/12/05 04:08:55;;;;;;;5.40;3.78;;;18.90;46.80;;;;;;6253212;28;20093;-57
2022/12/05 04:12:01;;;;;;;4.57;3.13;;;18.80;46.80;;;;;;6253296;28;20268;-58
2022/12/05 04:15:07;;;;;;;5.13;3.67;;;18.90;46.90;;;;;;6251914;28;20094;-59
2022/12/05 04:18:09;;;;;;;4.55;3.08;;;18.60;46.80;;;;;;6258599;28;20113;-59
2022/12/05 04:27:53;;;;;;;5.10;2.95;;;19.00;47.10;;;;;;6256602;28;21074;-59
2022/12/05 04:31:03;;;;;;;5.45;3.67;;;18.80;46.90;;;;;;6247600;28;20040;-59
2022/12/05 04:34:09;;;;;;;5.20;3.17;;;18.90;47.00;;;;;;6261602;28;20453;-58
2022/12/05 04:37:15;;;;;;;5.63;3.30;;;19.00;47.00;;;;;;6265885;28;20035;-59
2022/12/05 04:40:22;;;;;;;6.00;4.13;;;19.10;47.10;;;;;;6273339;28;20192;-59
2022/12/05 04:43:25;;;;;;;5.68;3.30;;;19.00;47.10;;;;;;6262034;28;20327;-59
2022/12/05 04:46:26;;;;;;;6.20;3.55;;;18.90;47.10;;;;;;6261934;28;20044;-59
2022/12/05 04:49:28;;;;;;;;;;;19.00;47.20;;;;;;6264121;28;20478;-59
2022/12/05 04:52:31;;;;;;;;;;;18.60;47.30;;;;;;6265208;28;19924;-59
2022/12/05 04:55:36;;;;;;;5.65;3.50;;;19.00;47.50;;;;;;6261897;28;20044;-59
2022/12/05 04:58:37;;;;;;;5.10;3.25;;;19.00;47.30;;;;;;6262939;28;20031;-59
2022/12/05 05:01:43;;;;;;;4.80;3.13;;;19.10;47.50;;;;;;6267969;28;20288;-59
2022/12/05 05:04:47;;;;;;;5.88;3.42;;;18.70;53.70;;;;;;6271228;28;20360;-59
2022/12/05 05:07:51;;;;;;;6.32;3.83;;;18.80;47.20;;;;;;6251328;28;20040;-56
2022/12/05 05:11:05;;;;;;;5.35;3.47;;;18.70;47.10;;;;;;6249872;28;20173;-59
2022/12/05 05:14:06;;;;;;;5.68;3.53;;;18.70;47.10;;;;;;6261188;28;20310;-59
2022/12/05 05:17:08;;;;;;;4.90;3.05;;;18.70;47.20;;;;;;6261496;28;20044;-58
2022/12/05 05:23:26;;;;;;;5.43;3.30;;;18.90;47.10;;;;;;6251658;28;20350;-58
2022/12/05 05:26:29;;;;;;;6.82;3.90;;;18.50;47.10;;;;;;6267663;28;20056;-58
2022/12/05 05:29:31;;;;;;;5.32;3.28;;;19.10;47.30;;;;;;6271149;28;20079;-59
2022/12/05 05:32:32;;;;;;;6.45;3.97;;;18.90;47.20;;;;;;6277732;28;20044;-59
2022/12/05 05:35:35;;;;;;;;;;;19.00;47.30;;;;;;6277601;28;20074;-59
2022/12/05 05:38:37;;;;;;;5.53;3.38;;;19.20;47.50;;;;;;6266937;28;19931;-58
2022/12/05 05:41:39;;;;;;;6.45;4.18;;;18.90;47.10;;;;;;6259324;28;20067;-59
2022/12/05 05:44:41;;;;;;;6.95;4.00;;;19.00;47.10;;;;;;6257584;28;20044;-57
2022/12/05 05:47:43;;;;;;;7.10;4.20;;;18.90;47.10;;;;;;6272439;28;20617;-59
2022/12/05 05:50:44;;;;;;;6.22;3.55;;;19.00;47.20;;;;;;6269776;28;20032;-58
2022/12/05 05:53:46;;;;;;;5.63;3.50;;;18.80;47.20;;;;;;6272678;28;20919;-59
2022/12/05 05:56:48;;;;;;;5.80;3.38;;;18.80;47.10;;;;;;6267521;28;20060;-59
2022/12/05 05:59:49;;;;;;;6.20;3.75;;;19.00;46.90;;;;;;6264179;28;20113;-59
2022/12/05 06:02:51;;;;;;;5.18;3.70;;;19.20;47.20;;;;;;6271354;28;20354;-59
2022/12/05 06:05:56;;;;;;;5.53;3.70;;;19.10;47.30;;;;;;6269262;28;20043;-59
2022/12/05 06:08:58;;;;;;;6.32;3.72;;;18.60;46.70;;;;;;6273882;28;20036;-59
2022/12/05 06:12:00;;;;;;;5.22;3.25;;;19.00;47.30;;;;;;6270656;28;20040;-59
2022/12/05 06:15:01;;;;;;;;;;;19.00;47.20;;;;;;6269791;28;20065;-58
2022/12/05 06:18:02;;;;;;;5.55;3.85;;;18.80;47.10;;;;;;6259897;28;20127;-59
2022/12/05 06:21:07;;;;;;;5.00;3.20;;;18.90;47.10;;;;;;6259687;28;20117;-59
2022/12/05 06:24:17;;;;;;;5.70;3.70;;;18.80;47.00;;;;;;6258287;28;20249;-57
2022/12/05 06:27:19;;;;;;;6.45;3.83;;;18.80;47.10;;;;;;6264953;28;20840;-59
2022/12/05 06:30:20;;;;;;;;;;;18.90;46.90;;;;;;6264007;28;20104;-59
2022/12/05 06:33:22;;;;;;;6.18;3.88;;;19.30;47.60;;;;;;6262918;28;20000;-57
2022/12/05 06:36:23;;;;;;;;;;;19.00;47.20;;;;;;6262848;28;20086;-58
2022/12/05 06:39:25;;;;;;;5.00;3.38;;;19.00;47.40;;;;;;6264086;28;20059;-59
2022/12/05 06:42:27;;;;;;;5.35;3.47;;;19.00;47.20;;;;;;6265106;28;20380;-58
2022/12/05 06:45:28;;;;;;;5.20;3.50;;;18.90;47.20;;;;;;6260598;28;20052;-58
2022/12/05 06:48:30;;;;;;;6.07;4.00;;;19.00;47.20;;;;;;6258008;28;20048;-58
2022/12/05 06:51:31;;;;;;;5.13;3.45;;;18.80;46.90;;;;;;6262131;28;20097;-59
2022/12/05 06:54:33;;;;;;;4.32;3.33;;;19.00;46.90;;;;;;6259262;28;20289;-58
2022/12/05 06:57:35;;;;;;;5.88;3.55;;;18.70;46.90;;;;;;6263181;28;20135;-59
2022/12/05 07:03:53;;;;;;;5.13;3.15;;;19.40;47.30;;;;;;6253255;28;20045;-59
2022/12/05 07:06:55;;;;;;;4.80;3.15;;;18.90;46.90;;;;;;6253464;28;20160;-57
2022/12/05 07:09:57;;;;;;;4.70;3.33;;;18.90;47.10;;;;;;6254609;28;20036;-59
2022/12/05 07:12:59;;;;;;;4.55;3.58;;;19.00;47.10;;;;;;6240766;28;20040;-59
2022/12/05 07:16:00;;;;;;;4.85;3.25;;;19.00;47.00;;;;;;6229757;28;20043;-59
2022/12/05 07:19:02;;;;;;;4.68;3.28;;;18.80;46.60;;;;;;6236843;28;20044;-58
2022/12/05 07:22:03;;;;;;;;;;;19.20;46.70;;;;;;6228797;28;20032;-59
2022/12/05 07:25:06;;;;;;;4.53;2.90;;;19.00;46.70;;;;;;6234604;28;20931;-58
2022/12/05 07:28:08;;;;;;;3.42;3.08;;;19.10;47.10;;;;;;6224258;28;20046;-59
2022/12/05 07:31:11;;;;;;;;;;;19.20;46.00;;;;;;6203811;28;21578;-59
2022/12/05 07:34:12;;;;;;;5.18;3.60;;;19.50;46.70;;;;;;6207603;28;21285;-60
2022/12/05 07:37:14;;;;;;;;;;;19.40;46.20;;;;;;6186771;28;20044;-59
2022/12/05 07:40:16;;;;;;;4.25;3.28;;;17.70;46.10;;;;;;6176243;28;19928;-59
2022/12/05 07:43:17;;;;;;;4.57;3.13;;;19.30;45.60;;;;;;6182327;28;22769;-58
2022/12/05 07:46:19;;;;;;;5.00;3.33;;;19.70;46.20;;;;;;6172100;28;20086;-59
2022/12/05 07:49:21;;;;;;;5.28;3.58;;;19.50;46.00;;;;;;6155017;28;20117;-59
2022/12/05 07:52:23;;;;;;;4.38;3.08;;;19.60;45.90;;;;;;6143381;28;20186;-58
2022/12/05 07:55:25;;;;;;;4.35;3.17;;;19.40;45.40;;;;;;6165420;28;20040;-59
2022/12/05 07:58:28;;;;;;;5.43;3.40;;;19.40;45.80;;;;;;6147203;28;20607;-60
2022/12/05 08:01:29;;;;;;;4.68;3.20;;;19.30;45.50;;;;;;6098367;28;21116;-59
2022/12/05 08:04:31;;;;;;;4.55;3.25;;;19.40;45.80;;;;;;6099160;28;20860;-60
2022/12/05 08:07:33;;;;;;;4.70;3.30;;;19.50;45.80;;;;;;6095093;28;20048;-60
2022/12/05 08:10:36;;;;;;;4.63;3.67;;;19.30;45.50;;;;;;6055364;28;20168;-60
2022/12/05 08:13:38;;;;;;;4.85;3.40;;;19.60;45.70;;;;;;6013774;28;20091;-61
2022/12/05 08:16:40;;;;;;;5.15;3.60;;;19.60;46.30;;;;;;5996906;28;20044;-60
2022/12/05 08:19:42;;;;;;;;;;;19.40;45.30;;;;;;5897686;28;21400;-59
2022/12/05 08:22:44;;;;;;;5.43;3.17;;;19.80;46.30;;;;;;5945485;28;20314;-60
2022/12/05 08:25:46;;;;;;;;;;;19.50;45.20;;;;;;5982308;28;20051;-60
2022/12/05 08:28:50;;;;;;;;;;;20.00;46.20;;;;;;6040238;28;19928;-60
2022/12/05 08:31:52;;;;;;;4.40;3.35;;;19.80;46.10;;;;;;6017123;28;19928;-59
2022/12/05 08:34:55;;;;;;;4.22;3.15;;;19.60;45.70;;;;;;5994555;28;21377;-60
2022/12/05 08:37:59;;;;;;;4.63;3.40;;;19.20;45.20;;;;;;6038833;28;20112;-60
2022/12/05 08:41:03;;;;;;;4.60;3.35;;;19.80;45.80;;;;;;6032253;28;20044;-60
2022/12/05 08:44:08;;;;;;;3.83;2.95;;;19.70;45.70;;;;;;6043602;28;20051;-60
2022/12/05 08:47:10;;;;;;;3.88;2.88;;;19.70;45.80;;;;;;6038218;28;20110;-61
2022/12/05 08:50:11;;;;;;;;;;;19.70;45.70;;;;;;6001533;28;21420;-60
2022/12/05 08:53:13;;;;;;;4.20;3.20;;;20.50;46.50;;;;;;6015357;28;19935;-60
2022/12/05 08:56:15;;;;;;;4.05;2.90;;;19.80;45.50;;;;;;5997415;28;20048;-61
2022/12/05 08:59:17;;;;;;;4.15;2.90;;;20.40;45.70;;;;;;5985134;28;20044;-60
2022/12/05 09:02:18;;;;;;;5.20;3.70;;;19.70;45.40;;;;;;5980343;28;20040;-61
2022/12/05 09:05:21;;;;;;;5.22;3.42;;;20.00;45.70;;;;;;6038536;28;20048;-58
2022/12/05 09:08:30;;;;;;;4.47;3.35;;;19.80;45.50;;;;;;6034771;28;20785;-62
2022/12/05 09:11:33;;;;;;;;;;;19.90;45.50;;;;;;6018655;28;22130;-60
2022/12/05 09:14:36;;;;;;;4.25;3.33;;;20.00;45.80;;;;;;6055983;28;21571;-61
2022/12/05 09:17:38;;;;;;;4.30;3.40;;;19.90;45.70;;;;;;6034707;28;20040;-60
2022/12/05 09:20:41;;;;;;;4.88;2.95;;;20.10;45.50;;;;;;6021977;28;20044;-59
2022/12/05 09:23:43;;;;;;;5.70;3.83;;;19.70;45.40;;;;;;6018206;28;20046;-58
2022/12/05 09:26:46;;;;;;;5.88;3.55;;;19.50;45.00;;;;;;6030508;28;20132;-61
2022/12/05 09:29:48;;;;;;;6.47;3.63;;;19.60;45.10;;;;;;6000799;28;20049;-61
2022/12/05 09:32:49;;;;;;;;;;;19.90;45.40;;;;;;6003162;28;22787;-59
2022/12/05 09:35:52;;;;;;;4.72;3.22;;;20.30;45.90;;;;;;6017321;28;19928;-60
2022/12/05 09:39:00;;;;;;;5.43;4.00;;;19.90;43.90;;;;;;5989273;28;20423;-60
2022/12/05 09:42:19;;;;;;;4.65;3.35;;;19.50;45.30;;;;;;5930859;28;20048;-61
2022/12/05 09:45:28;;;;;;;4.95;3.65;;;19.80;45.50;;;;;;5893150;28;20051;-62
2022/12/05 09:48:31;;;;;;;4.40;3.25;;;19.70;45.20;;;;;;5914300;28;20133;-61
2022/12/05 09:51:39;;;;;;;5.03;3.38;;;19.90;45.30;;;;;;5952753;28;20036;-60
2022/12/05 09:54:40;;;;;;;4.38;3.08;;;20.20;45.50;;;;;;5912902;28;20051;-58
2022/12/05 09:57:48;;;;;;;4.93;3.63;;;20.00;45.00;;;;;;5980037;28;20059;-59
2022/12/05 10:00:53;;;;;;;4.00;3.15;;;19.60;44.80;;;;;;5965321;28;20890;-58
2022/12/05 10:04:07;;;;;;;4.85;3.28;;;19.50;44.70;;;;;;5887999;28;20625;-61
2022/12/05 10:07:20;;;;;;;4.80;3.70;;;19.40;44.70;;;;;;5881772;28;20175;-59
2022/12/05 10:10:32;;;;;;;5.05;3.85;;;19.80;44.80;;;;;;5963827;28;20052;-60
2022/12/05 10:13:48;;;;;;;;;;;20.00;44.70;;;;;;5983383;28;20032;-62
2022/12/05 10:16:54;;;;;;;4.88;3.47;;;20.10;45.10;;;;;;6010345;28;19934;-63
2022/12/05 10:20:00;;;;;;;4.72;3.47;;;20.20;45.00;;;;;;5951607;28;20054;-62
2022/12/05 10:23:11;;;;;;;4.63;3.55;;;20.10;44.90;;;;;;5964355;28;21510;-62
2022/12/05 10:26:36;;;;;;;4.95;3.35;;;20.00;44.90;;;;;;5997960;28;20170;-61
2022/12/05 10:29:44;;;;;;;4.78;3.40;;;20.10;45.40;;;;;;6013922;28;20051;-62
2022/12/05 10:32:53;;;;;;;5.90;4.00;;;20.20;44.70;;;;;;6022053;28;20046;-62
2022/12/05 10:35:54;;;;;;;5.07;3.33;;;19.60;44.40;;;;;;6012068;28;20036;-61
2022/12/05 10:38:56;;;;;;;;;;;20.20;44.90;;;;;;6012962;28;20040;-61
2022/12/05 10:41:59;;;;;;;4.85;3.03;;;20.10;44.10;;;;;;6031303;28;19971;-62
2022/12/05 10:45:06;;;;;;;5.15;3.30;;;20.00;44.90;;;;;;6054618;28;20196;-62
2022/12/05 10:48:12;;;;;;;4.75;3.30;;;19.80;44.70;;;;;;6052367;28;20112;-62
2022/12/05 10:51:17;;;;;;;4.43;3.38;;;20.10;44.70;;;;;;6046276;28;20044;-60
2022/12/05 10:54:22;;;;;;;4.93;3.58;;;20.10;44.70;;;;;;6029729;28;20036;-61
2022/12/05 10:57:26;;;;;;;4.63;3.35;;;20.30;44.80;;;;;;6011089;28;20044;-62
2022/12/05 11:00:29;;;;;;;3.88;3.17;;;20.10;44.70;;;;;;5985099;28;20083;-62
2022/12/05 11:03:35;;;;;;;3.63;3.13;;;20.40;45.00;;;;;;6016223;28;20159;-63
2022/12/05 11:06:49;;;;;;;4.05;3.00;;;20.20;44.70;;;;;;6010918;28;21848;-62
2022/12/05 11:09:52;;;;;;;3.90;3.10;;;19.90;44.30;;;;;;5984595;28;20040;-62
2022/12/05 11:12:55;;;;;;;;;;;19.60;44.30;;;;;;5958196;28;20047;-63
2022/12/05 11:15:57;;;;;;;4.95;3.38;;;20.50;45.00;;;;;;5968240;28;19927;-62
2022/12/05 11:19:22;;;;;;;4.70;3.20;;;20.30;44.60;;;;;;6004147;28;20032;-61
2022/12/05 11:22:31;;;;;;;4.95;3.00;;;20.20;44.70;;;;;;6028451;28;20121;-63
2022/12/05 11:25:35;;;;;;;3.95;3.15;;;20.30;44.40;;;;;;6004957;28;20044;-63
2022/12/05 11:28:36;;;;;;;3.38;2.70;;;20.10;44.20;;;;;;6038793;28;20062;-61
2022/12/05 11:31:39;;;;;;;3.90;3.20;;;20.30;44.30;;;;;;6033850;28;20090;-63
2022/12/05 11:34:46;;;;;;;4.47;3.13;;;20.30;44.30;;;;;;6057619;28;20048;-61
2022/12/05 11:37:51;;;;;;;4.50;3.20;;;19.90;44.10;;;;;;6023813;28;20045;-61
2022/12/05 11:41:01;;;;;;;4.60;3.30;;;20.20;44.10;;;;;;6043867;28;20044;-60
2022/12/05 11:44:18;;;;;;;4.50;3.20;;;20.30;44.10;;;;;;6116397;28;20418;-61
2022/12/05 11:47:34;;;;;;;3.78;3.10;;;20.10;43.90;;;;;;6083202;28;23581;-61
2022/12/05 11:50:41;;;;;;;4.38;2.92;;;20.40;44.00;;;;;;6109045;28;20036;-60
2022/12/05 11:53:58;;;;;;;4.20;3.20;;;20.20;43.90;;;;;;6101636;28;20272;-61
2022/12/05 11:57:06;;;;;;;4.25;2.95;;;20.20;43.60;;;;;;6112046;28;21123;-62
2022/12/05 12:00:19;;;;;;;3.72;3.10;;;20.20;43.70;;;;;;6101878;28;20055;-61
2022/12/05 12:03:37;;;;;;;3.83;2.92;;;20.40;43.80;;;;;;6095803;28;20041;-61
2022/12/05 12:06:56;;;;;;;3.78;2.83;;;20.20;43.50;;;;;;6104360;28;20055;-61
2022/12/05 12:10:10;;;;;;;4.18;3.30;;;20.30;43.60;;;;;;6115222;28;20040;-59
2022/12/05 12:13:26;;;;;;;4.65;3.60;;;20.30;43.80;;;;;;6093744;28;22459;-61
2022/12/05 12:16:38;;;;;;;4.55;3.63;;;20.60;43.60;;;;;;6120934;28;21893;-61
2022/12/05 12:19:55;;;;;;;4.20;3.20;;;20.40;43.60;;;;;;6077864;28;20051;-61
2022/12/05 12:23:10;;;;;;;3.80;3.22;;;20.50;43.60;;;;;;6101930;28;20045;-62
2022/12/05 12:26:15;;;;;;;4.68;3.40;;;20.30;43.60;;;;;;6127889;28;20047;-62
2022/12/05 12:29:27;;;;;;;4.85;3.10;;;20.00;43.50;;;;;;6023132;28;20052;-61
2022/12/05 12:32:37;;;;;;;4.68;3.08;;;20.00;43.60;;;;;;6044175;28;20106;-59
2022/12/05 12:35:46;;;;;;;4.82;3.40;;;20.00;43.70;;;;;;6091940;28;20801;-61
2022/12/05 12:39:09;;;;;;;4.38;3.03;;;19.90;43.90;;;;;;6049993;28;20748;-61
2022/12/05 12:42:20;;;;;;;4.80;3.10;;;19.70;43.60;;;;;;6008149;28;20697;-62
2022/12/05 12:45:39;;;;;;;4.50;3.00;;;20.40;44.00;;;;;;5978704;28;20040;-61
2022/12/05 12:48:58;;;;;;;4.53;3.33;;;20.30;44.10;;;;;;6018730;28;21849;-63
2022/12/05 12:52:04;;;;;;;3.75;2.83;;;20.20;43.90;;;;;;5977142;28;20033;-64
2022/12/05 12:55:19;;;;;;;4.20;2.40;;;19.80;43.90;;;;;;6010169;28;20043;-63
2022/12/05 12:58:36;;;;;;;4.38;2.80;;;20.00;43.90;;;;;;5963023;28;20044;-62
2022/12/05 13:01:42;;;;;;;4.15;2.95;;;20.40;44.10;;;;;;5885696;28;20040;-62
2022/12/05 13:04:52;;;;;;;3.85;2.58;;;20.20;44.50;;;;;;5952478;28;22407;-61
2022/12/05 13:07:59;;;;;;;3.35;2.60;;;20.40;44.00;;;;;;5895679;28;20048;-61
2022/12/05 13:11:04;;;;;;;3.15;2.47;;;20.40;44.20;;;;;;5944156;28;21852;-61
2022/12/05 13:14:11;;;;;;;3.17;2.40;;;19.80;43.70;;;;;;5971849;28;20036;-61
2022/12/05 13:17:17;;;;;;;2.38;2.00;;;20.00;43.80;;;;;;5949851;28;20047;-62
2022/12/05 13:20:22;;;;;;;2.40;1.88;;;20.20;43.80;;;;;;5965388;28;20585;-62
2022/12/05 13:23:28;;;;;;;2.85;2.25;;;20.50;44.20;;;;;;5985544;28;20116;-61
2022/12/05 13:26:33;;;;;;;3.42;2.30;;;20.70;44.30;;;;;;5984228;28;21177;-63
2022/12/05 13:29:38;;;;;;;2.40;1.88;;;20.40;44.20;;;;;;5953295;28;20082;-61
2022/12/05 13:32:41;;;;;;;2.40;1.80;;;20.20;43.90;;;;;;5983472;28;20036;-63
2022/12/05 13:42:23;;;;;;;3.00;1.70;;;20.30;44.40;;;;;;5934392;28;22173;-61
2022/12/05 13:45:25;;;;;;;2.33;1.83;;;20.50;44.60;;;;;;5915605;28;23038;-60
2022/12/05 13:48:32;;;;;;;2.60;1.85;;;20.50;44.30;;;;;;5929549;28;20032;-60
2022/12/05 13:51:37;;;;;;;2.58;1.70;;;20.00;44.70;;;;;;5958697;28;20048;-61
2022/12/05 13:54:50;;;;;;;3.05;2.00;;;20.10;44.10;;;;;;5901708;28;21495;-62
2022/12/05 13:57:54;;;;;;;2.65;1.80;;;19.80;43.90;;;;;;5897754;28;20163;-61
2022/12/05 14:01:29;;;;;;;3.78;2.10;;;20.00;44.30;;;;;;5911461;28;20044;-62
2022/12/05 14:04:49;;;;;;;2.03;1.67;;;20.60;44.60;;;;;;5863677;28;20156;-64
2022/12/05 14:07:51;;;;;;;2.58;1.95;;;20.40;44.40;;;;;;5886735;28;20050;-67
2022/12/05 14:11:09;;;;;;;2.60;1.95;;;20.60;44.50;;;;;;5961987;28;22660;-60
2022/12/05 14:14:11;;;;;;;2.35;1.55;;;20.50;44.50;;;;;;5972327;28;20133;-62
2022/12/05 14:17:14;;;;;;;2.60;1.95;;;20.00;44.20;;;;;;5939271;28;20211;-64
2022/12/05 14:20:24;;;;;;;2.13;1.80;;;20.30;45.00;;;;;;5907933;28;20051;-61
2022/12/05 14:23:46;;;;;;;2.38;1.73;;;20.50;44.40;;;;;;5978430;28;20570;-63
2022/12/05 14:27:06;;;;;;;2.55;2.03;;;20.00;44.40;;;;;;5978079;28;20138;-63
2022/12/05 14:30:20;;;;;;;1.95;1.58;;;20.40;44.80;;;;;;5997536;28;20037;-62
2022/12/05 14:33:22;;;;;;;2.65;1.85;;;20.00;44.90;;;;;;5956429;28;22502;-63
2022/12/05 14:36:29;;;;;;;2.83;1.98;;;20.40;45.20;;;;;;5959779;28;21235;-62
2022/12/05 14:39:41;;;;;;;2.55;2.08;;;20.40;44.40;;;;;;5982537;28;20047;-62
2022/12/05 14:42:49;;;;;;;;;;;20.40;44.50;;;;;;5982438;28;20615;-61
2022/12/05 14:45:58;;;;;;;3.50;2.60;;;20.60;44.70;;;;;;5973197;28;20013;-60
2022/12/05 14:49:26;;;;;;;3.08;2.20;;;19.80;44.30;;;;;;5967571;28;31081;-63
2022/12/05 14:52:30;;;;;;;2.45;1.95;;;20.40;44.60;;;;;;5980096;28;20050;-64
2022/12/05 14:55:32;;;;;;;5.07;2.22;;;20.40;44.50;;;;;;5956585;28;20933;-63
2022/12/05 14:58:39;;;;;;;2.22;1.80;;;20.00;44.30;;;;;;5983070;28;20051;-62
2022/12/05 15:01:47;;;;;;;2.03;1.70;;;19.90;44.30;;;;;;5942248;28;20840;-61
2022/12/05 15:04:55;;;;;;;2.17;1.75;;;19.80;60.70;;;;;;5858868;28;20036;-62
2022/12/05 15:07:58;;;;;;;1.92;1.55;;;20.20;44.30;;;;;;5829215;28;20044;-62
2022/12/05 15:11:01;;;;;;;2.17;1.63;;;20.30;44.60;;;;;;5839943;28;20139;-62
2022/12/05 15:14:12;;;;;;;1.77;1.50;;;20.30;44.50;;;;;;5826731;28;21383;-62
2022/12/05 15:17:17;;;;;;;2.03;1.52;;;20.00;44.30;;;;;;5843775;28;20167;-61
2022/12/05 15:20:29;;;;;;;2.50;1.60;;;20.40;44.40;;;;;;5873096;28;20051;-62
2022/12/05 15:23:47;;;;;;;2.03;1.42;;;19.50;44.00;;;;;;5891928;28;20044;-63
2022/12/05 15:26:51;;;;;;;1.90;1.70;;;20.20;44.40;;;;;;5824442;28;20101;-63
2022/12/05 15:29:55;;;;;;;2.63;1.85;;;20.20;44.30;;;;;;5843310;28;20040;-62
2022/12/05 15:32:57;;;;;;;2.38;1.90;;;19.80;44.10;;;;;;5849127;28;20047;-62
2022/12/05 15:36:01;;;;;;;2.08;1.65;;;19.90;44.20;;;;;;5844487;28;20040;-62
2022/12/05 15:39:05;;;;;;;2.67;1.90;;;20.10;44.40;;;;;;5915918;28;20075;-62
2022/12/05 15:42:14;;;;;;;2.20;1.73;;;20.20;44.40;;;;;;5912977;28;20102;-62
2022/12/05 15:45:22;;;;;;;2.70;2.10;;;19.80;44.10;;;;;;5942454;28;20135;-62
2022/12/05 15:48:23;;;;;;;2.83;1.95;;;19.50;44.00;;;;;;5884254;28;20435;-63
2022/12/05 15:51:30;;;;;;;2.33;1.67;;;20.10;44.50;;;;;;6002029;28;21187;-62
2022/12/05 15:54:34;;;;;;;2.40;1.90;;;19.80;44.20;;;;;;5977531;28;20174;-64
2022/12/05 15:57:41;;;;;;;2.38;1.92;;;19.70;45.00;;;;;;5986055;28;20048;-62
2022/12/05 16:00:49;;;;;;;2.47;1.92;;;19.80;44.30;;;;;;5948181;28;23617;-63
2022/12/05 16:03:55;;;;;;;2.20;1.90;;;19.80;44.30;;;;;;5958787;28;22036;-63
2022/12/05 16:07:00;;;;;;;2.60;1.92;;;20.00;44.40;;;;;;5921660;28;20040;-61
2022/12/05 16:10:02;;;;;;;2.83;2.30;;;20.10;44.60;;;;;;6746587;22;21072;-63
2022/12/05 16:13:06;;;;;;;2.65;2.15;;;20.50;44.80;;;;;;7015796;22;20056;-63
2022/12/05 16:16:14;;;;;;;3.17;2.15;;;19.60;44.40;;;;;;5931926;28;20043;-62
2022/12/05 16:19:21;;;;;;;2.58;2.10;;;20.00;44.60;;;;;;5945037;28;20284;-62
2022/12/05 16:22:32;;;;;;;3.33;2.30;;;19.60;44.30;;;;;;5921094;28;20256;-62
2022/12/05 16:25:35;;;;;;;3.92;1.98;;;19.80;44.80;;;;;;5975906;28;20041;-60
2022/12/05 16:28:38;;;;;;;3.22;2.42;;;20.00;44.70;;;;;;5956936;28;20044;-62
2022/12/05 16:31:41;;;;;;;2.35;1.95;;;20.00;44.40;;;;;;5964177;28;20682;-60
2022/12/05 16:34:44;;;;;;;2.60;1.75;;;20.10;44.60;;;;;;5984600;28;20589;-60